createdAt,value
2018-09-06T00:01:44.385Z,12.40
2018-09-06T00:04:12.654Z,12.03
2018-09-06T00:06:40.919Z,12.23
2018-09-06T00:09:09.747Z,12.83
2018-09-06T00:11:38.159Z,12.40
2018-09-06T00:14:06.445Z,13.27
2018-09-06T00:16:34.749Z,13.07
2018-09-06T00:19:03.024Z,12.70
2018-09-06T00:21:31.296Z,13.30
2018-09-06T00:23:59.583Z,12.50
2018-09-06T00:26:27.845Z,12.60
2018-09-06T00:28:56.121Z,13.40
2018-09-06T00:31:24.391Z,12.83
2018-09-06T00:33:52.671Z,13.47
2018-09-06T00:36:20.935Z,13.17
2018-09-06T00:38:49.203Z,12.53
2018-09-06T00:41:17.516Z,11.77
2018-09-06T00:43:45.873Z,12.40
2018-09-06T00:46:14.169Z,12.40
2018-09-06T00:48:42.434Z,12.00
2018-09-06T00:51:10.755Z,12.63
2018-09-06T00:53:39.049Z,12.33
2018-09-06T00:56:07.326Z,12.63
2018-09-06T00:58:35.643Z,13.07
2018-09-06T01:01:03.923Z,12.83
2018-09-06T01:03:32.179Z,13.17
2018-09-06T01:06:00.457Z,12.93
2018-09-06T01:08:28.723Z,12.83
2018-09-06T01:10:57.003Z,12.93
2018-09-06T01:13:25.270Z,12.73
2018-09-06T01:15:53.560Z,12.53
2018-09-06T01:18:21.843Z,12.40
2018-09-06T01:20:50.190Z,13.13
2018-09-06T01:23:18.477Z,12.30
2018-09-06T01:25:47.651Z,13.03
2018-09-06T01:28:16.516Z,12.13
2018-09-06T01:30:44.767Z,13.83
2018-09-06T01:33:13.052Z,12.63
2018-09-06T01:35:46.320Z,12.40
2018-09-06T01:38:14.597Z,12.53
2018-09-06T01:40:42.876Z,12.67
2018-09-06T01:43:11.109Z,13.43
2018-09-06T01:45:39.374Z,13.17
2018-09-06T01:48:07.644Z,13.63
2018-09-06T01:50:35.912Z,12.80
2018-09-06T01:53:04.184Z,13.07
2018-09-06T01:55:32.476Z,12.17
2018-09-06T01:58:00.734Z,12.70
2018-09-06T02:00:29.006Z,13.23
2018-09-06T02:02:57.260Z,12.47
2018-09-06T02:05:30.439Z,12.33
2018-09-06T02:07:59.160Z,12.93
2018-09-06T02:10:27.438Z,13.53
2018-09-06T02:12:55.741Z,12.90
2018-09-06T02:15:24.006Z,12.77
2018-09-06T02:17:52.264Z,13.00
2018-09-06T02:20:20.518Z,13.10
2018-09-06T02:22:48.794Z,13.30
2018-09-06T02:25:17.100Z,12.30
2018-09-06T02:27:45.360Z,12.60
2018-09-06T02:30:13.639Z,12.63
2018-09-06T02:32:41.892Z,12.77
2018-09-06T02:35:10.151Z,12.60
2018-09-06T02:37:38.636Z,12.43
2018-09-06T02:40:07.674Z,12.30
2018-09-06T02:42:35.976Z,12.60
2018-09-06T02:45:04.269Z,13.70
2018-09-06T02:47:32.580Z,12.27
2018-09-06T02:50:06.250Z,12.73
2018-09-06T02:52:34.516Z,12.83
2018-09-06T02:55:02.784Z,12.17
2018-09-06T02:57:31.073Z,12.33
2018-09-06T02:59:59.340Z,12.53
2018-09-06T03:02:27.611Z,12.77
2018-09-06T03:04:55.868Z,12.80
2018-09-06T03:07:24.144Z,13.60
2018-09-06T03:09:52.531Z,11.73
2018-09-06T03:12:20.818Z,12.17
2018-09-06T03:14:49.095Z,12.47
2018-09-06T03:17:17.388Z,12.37
2018-09-06T03:19:45.676Z,12.83
2018-09-06T03:22:14.020Z,12.40
2018-09-06T03:24:42.291Z,12.37
2018-09-06T03:27:10.588Z,12.63
2018-09-06T03:29:38.864Z,13.20
2018-09-06T03:32:07.133Z,12.63
2018-09-06T03:34:35.402Z,13.07
2018-09-06T03:37:03.685Z,12.27
2018-09-06T03:39:31.947Z,12.07
2018-09-06T03:42:00.216Z,13.27
2018-09-06T03:44:28.484Z,12.40
2018-09-06T03:46:56.773Z,13.23
2018-09-06T03:49:25.047Z,13.77
2018-09-06T03:51:53.341Z,13.10
2018-09-06T03:54:21.603Z,12.57
2018-09-06T03:56:49.864Z,14.50
2018-09-06T03:59:18.157Z,13.43
2018-09-06T04:01:46.442Z,13.23
2018-09-06T04:04:14.708Z,12.87
2018-09-06T04:06:43.903Z,12.87
2018-09-06T04:09:12.259Z,13.27
2018-09-06T04:11:40.604Z,12.70
2018-09-06T04:14:08.875Z,13.93
2018-09-06T04:16:37.469Z,13.40
2018-09-06T04:19:06.103Z,13.47
2018-09-06T04:21:34.484Z,14.07
2018-09-06T04:24:02.772Z,13.90
2018-09-06T04:26:31.253Z,12.97
2018-09-06T04:28:59.529Z,13.93
2018-09-06T04:31:27.788Z,14.03
2018-09-06T04:33:56.613Z,14.40
2018-09-06T04:36:24.889Z,13.53
2018-09-06T04:38:53.210Z,13.90
2018-09-06T04:41:21.493Z,13.80
2018-09-06T04:43:49.873Z,14.30
2018-09-06T04:46:18.078Z,12.63
2018-09-06T04:48:46.337Z,13.73
2018-09-06T04:51:14.611Z,13.90
2018-09-06T04:53:42.905Z,13.93
2018-09-06T04:56:11.167Z,12.97
2018-09-06T04:58:39.550Z,13.60
2018-09-06T05:01:07.736Z,13.77
2018-09-06T05:03:36.003Z,13.17
2018-09-06T05:06:04.327Z,13.17
2018-09-06T05:08:32.684Z,13.37
2018-09-06T05:11:00.974Z,13.60
2018-09-06T05:13:29.248Z,13.70
2018-09-06T05:15:57.519Z,13.83
2018-09-06T05:18:25.900Z,13.50
2018-09-06T05:20:54.184Z,13.40
2018-09-06T05:23:22.469Z,12.90
2018-09-06T05:25:50.748Z,13.00
2018-09-06T05:28:19.045Z,12.57
2018-09-06T05:30:47.362Z,14.50
2018-09-06T05:33:15.610Z,13.37
2018-09-06T05:35:43.905Z,13.27
2018-09-06T05:38:12.288Z,14.00
2018-09-06T05:40:40.600Z,13.37
2018-09-06T05:43:08.870Z,13.10
2018-09-06T05:45:37.153Z,12.93
2018-09-06T05:48:05.439Z,12.80
2018-09-06T05:50:33.732Z,13.00
2018-09-06T05:53:02.615Z,13.37
2018-09-06T05:55:31.577Z,12.67
2018-09-06T05:57:59.897Z,13.67
2018-09-06T06:00:33.382Z,12.33
2018-09-06T06:03:03.615Z,12.60
2018-09-06T06:05:31.925Z,13.30
2018-09-06T06:08:11.581Z,12.53
2018-09-06T06:10:39.963Z,13.70
2018-09-06T06:13:08.221Z,13.37
2018-09-06T06:15:36.575Z,12.80
2018-09-06T06:18:05.024Z,12.70
2018-09-06T06:20:33.291Z,12.60
2018-09-06T06:23:01.568Z,12.83
2018-09-06T06:25:29.867Z,13.10
2018-09-06T06:27:58.148Z,12.97
2018-09-06T06:30:26.500Z,11.93
2018-09-06T06:32:54.777Z,12.87
2018-09-06T06:35:23.239Z,12.73
2018-09-06T06:37:51.588Z,12.67
2018-09-06T06:40:19.859Z,12.37
2018-09-06T06:42:48.131Z,12.17
2018-09-06T06:45:16.391Z,12.63
2018-09-06T06:47:44.670Z,12.83
2018-09-06T06:50:12.993Z,12.93
2018-09-06T06:52:41.249Z,12.73
2018-09-06T06:55:09.684Z,12.53
2018-09-06T06:57:37.971Z,12.30
2018-09-06T07:00:06.296Z,11.63
2018-09-06T07:02:34.588Z,12.20
2018-09-06T07:05:02.848Z,12.50
2018-09-06T07:07:31.127Z,12.37
2018-09-06T07:09:59.409Z,12.20
2018-09-06T07:12:27.689Z,11.80
2018-09-06T07:14:55.948Z,12.03
2018-09-06T07:17:24.232Z,11.77
2018-09-06T07:19:52.514Z,12.80
2018-09-06T07:22:20.760Z,12.67
2018-09-06T07:24:49.024Z,13.37
2018-09-06T07:27:17.444Z,13.70
2018-09-06T07:29:45.722Z,13.17
2018-09-06T07:32:14.074Z,13.20
2018-09-06T07:34:42.356Z,13.13
2018-09-06T07:37:10.654Z,13.30
2018-09-06T07:39:38.915Z,12.37
2018-09-06T07:42:07.172Z,13.93
2018-09-06T07:44:35.434Z,12.37
2018-09-06T07:47:03.709Z,12.30
2018-09-06T07:49:31.980Z,12.00
2018-09-06T07:52:00.258Z,12.10
2018-09-06T07:54:28.535Z,12.53
2018-09-06T07:56:56.804Z,12.53
2018-09-06T07:59:25.200Z,12.13
2018-09-06T08:01:53.506Z,12.70
2018-09-06T08:04:21.776Z,12.57
2018-09-06T08:06:50.032Z,11.60
2018-09-06T08:09:18.313Z,11.23
2018-09-06T08:11:46.590Z,11.53
2018-09-06T08:14:14.848Z,11.03
2018-09-06T08:16:43.126Z,11.73
2018-09-06T08:19:11.437Z,12.33
2018-09-06T08:21:39.716Z,11.80
2018-09-06T08:24:07.992Z,12.10
2018-09-06T08:26:36.259Z,11.43
2018-09-06T08:29:04.540Z,11.47
2018-09-06T08:31:33.001Z,11.50
2018-09-06T08:34:01.278Z,12.03
2018-09-06T08:36:29.563Z,11.57
2018-09-06T08:38:57.831Z,12.17
2018-09-06T08:41:26.102Z,13.17
2018-09-06T08:43:54.366Z,12.30
2018-09-06T08:46:22.665Z,12.27
2018-09-06T08:48:51.595Z,12.23
2018-09-06T08:51:19.936Z,12.43
2018-09-06T08:53:48.231Z,12.10
2018-09-06T08:56:16.504Z,11.87
2018-09-06T08:58:44.776Z,12.33
2018-09-06T09:01:18.500Z,12.13
2018-09-06T09:03:46.770Z,11.90
2018-09-06T09:06:15.100Z,12.17
2018-09-06T09:08:43.374Z,12.07
2018-09-06T09:11:11.660Z,12.50
2018-09-06T09:13:39.945Z,14.97
2018-09-06T09:16:08.277Z,14.57
2018-09-06T09:18:36.485Z,13.30
2018-09-06T09:21:04.735Z,11.87
2018-09-06T09:23:33.017Z,19.30
2018-09-06T09:26:01.283Z,12.80
2018-09-06T09:28:29.545Z,13.73
2018-09-06T09:30:57.872Z,12.33
2018-09-06T09:33:26.125Z,13.10
2018-09-06T09:35:54.425Z,13.97
2018-09-06T09:38:22.669Z,14.80
2018-09-06T09:40:50.977Z,14.10
2018-09-06T09:43:19.252Z,15.03
2018-09-06T09:45:47.519Z,13.83
2018-09-06T09:48:15.834Z,12.73
2018-09-06T09:53:11.645Z,12.30
2018-09-06T09:55:39.923Z,11.90
2018-09-06T09:58:08.235Z,12.07
2018-09-06T10:00:38.334Z,13.27
2018-09-06T10:03:11.927Z,12.30
2018-09-06T10:05:45.593Z,12.43
2018-09-06T10:08:19.139Z,13.60
2018-09-06T10:10:47.409Z,13.77
2018-09-06T10:13:15.677Z,13.30
2018-09-06T10:15:43.973Z,13.10
2018-09-06T10:18:12.306Z,12.77
2018-09-06T10:20:40.774Z,12.83
2018-09-06T10:23:09.053Z,14.43
2018-09-06T10:25:37.327Z,13.80
2018-09-06T10:28:05.680Z,12.97
2018-09-06T10:30:33.946Z,12.73
2018-09-06T10:33:02.257Z,12.47
2018-09-06T10:35:30.597Z,14.87
2018-09-06T10:37:58.838Z,12.07
2018-09-06T10:40:27.160Z,12.87
2018-09-06T10:42:55.399Z,12.87
2018-09-06T10:45:23.782Z,12.97
2018-09-06T10:47:52.108Z,12.57
2018-09-06T10:50:20.343Z,12.33
2018-09-06T10:52:48.626Z,12.07
2018-09-06T10:55:16.920Z,13.30
2018-09-06T10:57:45.217Z,12.17
2018-09-06T11:00:13.558Z,12.70
2018-09-06T11:02:41.873Z,13.10
2018-09-06T11:05:10.159Z,13.70
2018-09-06T11:07:38.417Z,13.67
2018-09-06T11:10:06.713Z,13.00
2018-09-06T11:12:35.098Z,12.70
2018-09-06T11:15:03.442Z,13.07
2018-09-06T11:17:31.672Z,12.43
2018-09-06T11:19:59.926Z,13.00
2018-09-06T11:22:28.369Z,13.23
2018-09-06T11:24:56.479Z,13.27
2018-09-06T11:27:24.810Z,13.03
2018-09-06T11:29:53.050Z,13.97
2018-09-06T11:32:21.307Z,15.03
2018-09-06T11:34:49.603Z,14.00
2018-09-06T11:37:17.875Z,15.10
2018-09-06T11:39:46.421Z,15.07
2018-09-06T11:42:14.700Z,16.33
2018-09-06T11:44:43.008Z,14.13
2018-09-06T11:47:11.343Z,13.37
2018-09-06T11:49:39.556Z,14.07
2018-09-06T11:52:08.385Z,14.57
2018-09-06T11:54:36.679Z,14.17
2018-09-06T11:57:04.983Z,15.00
2018-09-06T11:59:33.276Z,14.40
2018-09-06T12:02:01.664Z,14.37
2018-09-06T12:04:29.905Z,15.10
2018-09-06T12:06:58.177Z,14.13
2018-09-06T12:09:26.455Z,15.90
2018-09-06T12:11:54.731Z,13.57
2018-09-06T12:14:23.005Z,14.00
2018-09-06T12:16:51.290Z,14.80
2018-09-06T12:19:19.659Z,14.20
2018-09-06T12:21:47.903Z,13.70
2018-09-06T12:24:16.196Z,14.47
2018-09-06T12:26:44.472Z,15.47
2018-09-06T12:29:12.767Z,14.47
2018-09-06T12:31:41.254Z,14.33
2018-09-06T12:34:09.544Z,15.20
2018-09-06T12:36:37.853Z,14.40
2018-09-06T12:39:07.664Z,14.40
2018-09-06T12:41:35.924Z,14.70
2018-09-06T12:44:04.297Z,14.90
2018-09-06T12:46:32.556Z,13.97
2018-09-06T12:49:00.840Z,15.80
2018-09-06T12:51:29.164Z,14.97
2018-09-06T12:53:57.759Z,13.50
2018-09-06T12:56:26.085Z,14.90
2018-09-06T12:58:54.341Z,13.13
2018-09-06T13:01:22.614Z,13.90
2018-09-06T13:03:50.872Z,12.77
2018-09-06T13:06:19.135Z,11.90
2018-09-06T13:08:47.430Z,12.63
2018-09-06T13:11:15.771Z,11.83
2018-09-06T13:13:44.098Z,12.13
2018-09-06T13:16:12.383Z,12.20
2018-09-06T13:18:40.778Z,11.30
2018-09-06T13:21:08.987Z,11.83
2018-09-06T13:23:37.264Z,11.97
2018-09-06T13:26:05.566Z,11.67
2018-09-06T13:28:33.877Z,10.87
2018-09-06T13:31:02.200Z,11.83
2018-09-06T13:33:30.488Z,10.63
2018-09-06T13:35:58.822Z,10.03
2018-09-06T13:38:27.152Z,11.70
2018-09-06T13:40:55.441Z,11.67
2018-09-06T13:43:23.755Z,11.00
2018-09-06T13:45:52.049Z,10.63
2018-09-06T13:48:20.426Z,10.87
2018-09-06T13:50:48.840Z,10.87
2018-09-06T13:53:17.195Z,11.23
2018-09-06T13:55:45.489Z,10.33
2018-09-06T13:58:13.796Z,10.30
2018-09-06T14:00:42.076Z,11.13
2018-09-06T14:03:10.430Z,11.20
2018-09-06T14:05:38.756Z,11.90
2018-09-06T14:08:07.035Z,11.47
2018-09-06T14:10:35.352Z,11.93
2018-09-06T14:13:03.650Z,11.73
2018-09-06T14:15:32.044Z,11.03
2018-09-06T14:18:00.413Z,11.50
2018-09-06T14:20:28.716Z,11.20
2018-09-06T14:22:57.030Z,10.77
2018-09-06T14:25:25.323Z,10.07
2018-09-06T14:27:53.684Z,11.37
2018-09-06T14:30:22.132Z,10.80
2018-09-06T14:32:50.615Z,10.17
2018-09-06T14:35:18.880Z,10.30
2018-09-06T14:37:47.182Z,10.70
2018-09-06T14:40:15.489Z,10.50
2018-09-06T14:42:43.823Z,10.10
2018-09-06T14:45:12.233Z,10.30
2018-09-06T14:47:40.683Z,10.27
2018-09-06T14:50:08.992Z,10.23
2018-09-06T14:52:37.305Z,10.83
2018-09-06T14:55:05.666Z,10.83
2018-09-06T14:57:33.954Z,10.10
2018-09-06T15:00:02.292Z,10.90
2018-09-06T15:02:30.609Z,10.73
2018-09-06T15:04:58.936Z,9.37
2018-09-06T15:07:27.268Z,10.40
2018-09-06T15:09:55.592Z,11.27
2018-09-06T15:12:23.940Z,10.63
2018-09-06T15:14:52.244Z,10.73
2018-09-06T15:17:20.528Z,10.70
2018-09-06T15:19:48.844Z,11.20
2018-09-06T15:22:17.188Z,10.90
2018-09-06T15:24:45.546Z,11.50
2018-09-06T15:27:13.824Z,10.20
2018-09-06T15:29:42.180Z,11.17
2018-09-06T15:32:10.498Z,11.30
2018-09-06T15:34:38.867Z,10.93
2018-09-06T15:37:07.150Z,10.70
2018-09-06T15:39:35.483Z,10.80
2018-09-06T15:42:03.760Z,11.47
2018-09-06T15:44:32.184Z,12.00
2018-09-06T15:47:00.484Z,11.00
2018-09-06T15:49:28.882Z,11.33
2018-09-06T15:51:57.156Z,11.33
2018-09-06T15:54:25.498Z,12.63
2018-09-06T15:56:53.791Z,11.77
2018-09-06T15:59:22.104Z,11.70
2018-09-06T16:01:50.516Z,11.97
2018-09-06T16:04:18.729Z,12.63
2018-09-06T16:06:47.020Z,12.13
2018-09-06T16:09:15.324Z,13.27
2018-09-06T16:11:43.614Z,13.03
2018-09-06T16:14:11.963Z,12.40
2018-09-06T16:16:40.251Z,15.03
2018-09-06T16:19:08.582Z,14.80
2018-09-06T16:21:36.891Z,15.20
2018-09-06T16:24:05.492Z,15.53
2018-09-06T16:26:34.092Z,14.90
2018-09-06T16:29:02.401Z,13.70
2018-09-06T16:31:30.744Z,13.77
2018-09-06T16:33:59.071Z,13.43
2018-09-06T16:36:27.412Z,14.03
2018-09-06T16:38:55.765Z,13.80
2018-09-06T16:41:24.104Z,13.40
2018-09-06T16:43:52.423Z,11.40
2018-09-06T16:46:20.718Z,11.30
2018-09-06T16:48:49.050Z,11.27
2018-09-06T16:51:17.355Z,11.13
2018-09-06T16:53:45.656Z,11.23
2018-09-06T16:56:13.985Z,11.17
2018-09-06T16:58:42.285Z,10.17
2018-09-06T17:01:10.636Z,10.53
2018-09-06T17:03:39.219Z,11.03
2018-09-06T17:06:07.533Z,10.00
2018-09-06T17:08:35.813Z,10.27
2018-09-06T17:11:04.085Z,10.10
2018-09-06T17:13:32.383Z,9.67
2018-09-06T17:16:00.677Z,10.70
2018-09-06T17:18:29.001Z,10.07
2018-09-06T17:20:57.285Z,9.77
2018-09-06T17:23:25.613Z,10.40
2018-09-06T17:25:53.903Z,10.40
2018-09-06T17:28:22.392Z,10.30
2018-09-06T17:30:50.792Z,10.30
2018-09-06T17:33:19.097Z,10.37
2018-09-06T17:35:47.423Z,10.83
2018-09-06T17:38:15.761Z,10.80
2018-09-06T17:40:44.067Z,10.57
2018-09-06T17:43:12.332Z,10.40
2018-09-06T17:45:40.890Z,10.80
2018-09-06T17:48:09.280Z,11.60
2018-09-06T17:50:37.589Z,11.97
2018-09-06T17:53:06.280Z,11.73
2018-09-06T17:55:34.767Z,11.60
2018-09-06T17:58:03.107Z,10.67
2018-09-06T18:00:31.400Z,11.13
2018-09-06T18:02:59.717Z,11.27
2018-09-06T18:05:28.033Z,10.70
2018-09-06T18:07:56.444Z,11.07
2018-09-06T18:10:24.828Z,17.20
2018-09-06T18:12:53.154Z,13.90
2018-09-06T18:15:21.551Z,12.27
2018-09-06T18:17:50.077Z,11.23
2018-09-06T18:20:18.297Z,11.67
2018-09-06T18:22:47.276Z,10.97
2018-09-06T18:25:15.673Z,10.70
2018-09-06T18:27:44.013Z,10.87
2018-09-06T18:30:12.378Z,11.03
2018-09-06T18:32:40.787Z,11.40
2018-09-06T18:35:09.443Z,10.87
2018-09-06T18:37:37.853Z,11.20
2018-09-06T18:40:06.135Z,10.67
2018-09-06T18:42:34.730Z,10.10
2018-09-06T18:45:03.297Z,9.77
2018-09-06T18:47:31.757Z,9.70
2018-09-06T18:50:00.244Z,10.67
2018-09-06T18:52:28.761Z,10.53
2018-09-06T18:54:57.108Z,10.30
2018-09-06T18:57:25.516Z,10.57
2018-09-06T18:59:53.854Z,10.40
2018-09-06T19:02:22.223Z,30.17
2018-09-06T19:04:50.612Z,15.00
2018-09-06T19:07:18.991Z,16.40
2018-09-06T19:09:47.766Z,17.80
2018-09-06T19:12:16.143Z,14.90
2018-09-06T19:14:45.093Z,10.47
2018-09-06T19:17:13.449Z,12.17
2018-09-06T19:19:41.794Z,12.17
2018-09-06T19:22:10.455Z,14.30
2018-09-06T19:24:38.795Z,11.33
2018-09-06T19:27:07.237Z,10.43
2018-09-06T19:29:35.611Z,11.97
2018-09-06T19:32:04.406Z,11.33
2018-09-06T19:34:32.825Z,33.33
2018-09-06T19:37:01.212Z,22.80
2018-09-06T19:39:29.589Z,13.30
2018-09-06T19:41:58.027Z,12.37
2018-09-06T19:44:26.555Z,11.13
2018-09-06T19:46:54.945Z,19.80
2018-09-06T19:49:23.703Z,16.77
2018-09-06T19:51:52.146Z,13.77
2018-09-06T19:54:20.619Z,14.07
2018-09-06T19:56:48.952Z,10.53
2018-09-06T19:59:17.346Z,17.60
2018-09-06T20:01:45.804Z,17.30
2018-09-06T20:04:14.585Z,25.73
2018-09-06T20:06:42.965Z,79.63
2018-09-06T20:09:11.381Z,78.27
2018-09-06T20:11:39.728Z,70.20
2018-09-06T20:14:08.056Z,72.87
2018-09-06T20:16:36.813Z,63.90
2018-09-06T20:19:05.221Z,57.87
2018-09-06T20:21:33.655Z,49.77
2018-09-06T20:24:02.241Z,43.07
2018-09-06T20:26:30.759Z,43.90
2018-09-06T20:28:59.059Z,33.23
2018-09-06T20:31:27.438Z,27.03
2018-09-06T20:33:55.769Z,34.10
2018-09-06T20:36:24.089Z,25.27
2018-09-06T20:38:52.427Z,25.20
2018-09-06T20:41:20.755Z,25.93
2018-09-06T20:43:49.062Z,24.70
2018-09-06T20:46:17.389Z,18.73
2018-09-06T20:48:45.755Z,12.83
2018-09-06T20:51:14.105Z,12.40
2018-09-06T20:53:42.433Z,10.33
2018-09-06T20:56:10.735Z,13.53
2018-09-06T20:58:39.025Z,14.30
2018-09-06T21:01:07.309Z,12.97
2018-09-06T21:03:35.731Z,14.70
2018-09-06T21:06:03.999Z,12.83
2018-09-06T21:08:32.335Z,13.17
2018-09-06T21:11:00.595Z,11.83
2018-09-06T21:13:28.901Z,16.87
2018-09-06T21:15:57.227Z,14.30
2018-09-06T21:18:25.501Z,12.13
2018-09-06T21:20:53.773Z,9.53
2018-09-06T21:23:22.133Z,11.10
2018-09-06T21:25:50.507Z,12.37
2018-09-06T21:28:18.820Z,13.87
2018-09-06T21:30:47.113Z,10.87
2018-09-06T21:33:15.482Z,11.30
2018-09-06T21:35:43.777Z,8.73
2018-09-06T21:38:12.066Z,10.50
2018-09-06T21:40:40.338Z,8.83
2018-09-06T21:43:08.636Z,9.73
2018-09-06T21:45:36.903Z,9.33
2018-09-06T21:48:05.199Z,9.53
2018-09-06T21:50:33.467Z,9.77
2018-09-06T21:53:01.744Z,9.93
2018-09-06T21:55:30.023Z,9.50
2018-09-06T21:57:58.321Z,10.17
2018-09-06T22:00:26.717Z,10.40
2018-09-06T22:03:00.308Z,10.40
2018-09-06T22:05:28.578Z,11.03
2018-09-06T22:07:56.843Z,11.20
2018-09-06T22:10:25.173Z,12.33
2018-09-06T22:12:53.687Z,12.00
2018-09-06T22:15:22.367Z,13.10
2018-09-06T22:17:50.643Z,13.50
2018-09-06T22:20:18.925Z,14.67
2018-09-06T22:22:47.179Z,15.10
2018-09-06T22:25:15.469Z,15.10
2018-09-06T22:27:43.757Z,14.77
2018-09-06T22:30:12.145Z,14.70
2018-09-06T22:32:40.473Z,15.27
2018-09-06T22:35:08.740Z,16.03
2018-09-06T22:37:37.001Z,15.57
2018-09-06T22:40:05.608Z,17.43
2018-09-06T22:42:33.871Z,15.83
2018-09-06T22:45:02.152Z,16.47
2018-09-06T22:47:30.407Z,16.73
2018-09-06T22:49:58.793Z,17.17
2018-09-06T22:52:27.107Z,16.63
2018-09-06T22:54:55.407Z,15.77
2018-09-06T22:57:23.655Z,17.37
2018-09-06T22:59:51.953Z,16.47
2018-09-06T23:02:20.321Z,15.57
2018-09-06T23:04:48.595Z,15.70
2018-09-06T23:07:16.966Z,14.63
2018-09-06T23:09:45.276Z,14.13
2018-09-06T23:12:13.539Z,14.53
2018-09-06T23:14:41.792Z,13.90
2018-09-06T23:17:10.104Z,13.60
2018-09-06T23:19:38.396Z,13.83
2018-09-06T23:22:07.033Z,14.70
2018-09-06T23:24:35.304Z,15.03
2018-09-06T23:27:03.574Z,14.17
2018-09-06T23:29:31.837Z,14.27
2018-09-06T23:32:00.088Z,15.70
2018-09-06T23:34:32.576Z,15.07
2018-09-06T23:37:00.872Z,15.23
2018-09-06T23:39:29.155Z,14.00
2018-09-06T23:41:57.440Z,15.67
2018-09-06T23:44:25.704Z,15.83
2018-09-06T23:46:53.980Z,14.57
2018-09-06T23:49:22.304Z,16.00
2018-09-06T23:51:50.560Z,16.10
2018-09-06T23:54:18.844Z,15.17
2018-09-06T23:56:47.096Z,15.47
2018-09-06T23:59:15.376Z,15.53
